createdAt,value
2019-02-23T00:04:04.610Z,-1.49
2019-02-23T00:19:10.016Z,-1.83
2019-02-23T00:34:13.406Z,-3.71
2019-02-23T00:49:16.033Z,-4.62
2019-02-23T01:04:20.204Z,-5.19
2019-02-23T01:19:23.418Z,-5.21
2019-02-23T01:34:27.747Z,-5.72
2019-02-23T01:49:30.324Z,-5.73
2019-02-23T02:04:34.656Z,-5.91
2019-02-23T02:19:37.646Z,-6.02
2019-02-23T02:34:41.635Z,-5.99
2019-02-23T02:49:44.277Z,-5.96
2019-02-23T03:04:46.839Z,-5.83
2019-02-23T03:19:50.541Z,-7.05
2019-02-23T03:34:53.121Z,-6.31
2019-02-23T03:49:55.712Z,-5.96
2019-02-23T04:04:58.844Z,-6.00
2019-02-23T04:20:04.299Z,-6.13
2019-02-23T04:35:07.840Z,-6.53
2019-02-23T04:50:13.075Z,-6.83
2019-02-23T05:05:15.769Z,-6.79
2019-02-23T05:20:18.351Z,-7.13
2019-02-23T05:35:21.702Z,-6.98
2019-02-23T05:50:24.278Z,-6.89
2019-02-23T06:05:26.840Z,-6.73
2019-02-23T06:20:29.410Z,-7.05
2019-02-23T06:35:32.060Z,-6.78
2019-02-23T06:50:34.619Z,-6.95
2019-02-23T07:05:39.815Z,-6.89
2019-02-23T07:20:44.749Z,-6.40
2019-02-23T07:35:48.925Z,-6.05
2019-02-23T07:50:52.637Z,-6.14
2019-02-23T08:05:56.991Z,-5.83
2019-02-23T08:21:02.238Z,-4.58
2019-02-23T08:36:04.813Z,-5.63
2019-02-23T08:51:09.025Z,-4.27
2019-02-23T09:06:12.477Z,-4.27
2019-02-23T09:21:18.315Z,-4.86
2019-02-23T09:36:20.931Z,-3.79
2019-02-23T09:51:24.913Z,-3.21
2019-02-23T10:06:27.484Z,-4.81
2019-02-23T10:21:32.137Z,-4.34
2019-02-23T10:36:35.276Z,-5.26
2019-02-23T10:51:38.659Z,-4.31
2019-02-23T11:06:42.432Z,-4.86
2019-02-23T11:21:45.363Z,-3.62
2019-02-23T11:36:47.934Z,-5.13
2019-02-23T11:51:51.292Z,-4.20
2019-02-23T12:06:53.876Z,-5.12
2019-02-23T12:21:57.805Z,-5.30
2019-02-23T12:37:01.557Z,-4.78
2019-02-23T12:52:04.142Z,-4.52
2019-02-23T13:07:06.795Z,-4.54
2019-02-23T13:22:24.533Z,-5.26
2019-02-23T13:37:40.155Z,-5.12
2019-02-23T14:08:39.215Z,-5.60
2019-02-23T14:23:51.448Z,-5.70
2019-02-23T14:55:04.754Z,-6.15
2019-02-23T15:10:26.802Z,-6.49
2019-02-23T15:41:27.252Z,-6.92
2019-02-23T15:56:30.939Z,-7.30
2019-02-23T16:11:33.522Z,-7.32
2019-02-23T16:26:38.850Z,-7.46
2019-02-23T16:41:44.256Z,-7.57
2019-02-23T16:56:46.820Z,-7.66
2019-02-23T17:11:50.204Z,-7.74
2019-02-23T17:26:52.785Z,-8.11
2019-02-23T17:41:56.151Z,-8.12
2019-02-23T17:57:01.120Z,-8.15
2019-02-23T18:12:03.767Z,-8.26
2019-02-23T18:27:08.462Z,-8.31
2019-02-23T18:42:11.250Z,-8.27
2019-02-23T18:57:13.915Z,-8.32
2019-02-23T19:12:16.504Z,-8.29
2019-02-23T19:27:19.069Z,-8.28
2019-02-23T19:42:21.680Z,-8.23
2019-02-23T19:57:24.348Z,-8.07
2019-02-23T20:12:28.275Z,-8.05
2019-02-23T20:27:31.106Z,-8.14
2019-02-23T20:42:33.770Z,-8.17
2019-02-23T20:57:36.508Z,-8.42
2019-02-23T21:12:39.987Z,-8.54
2019-02-23T21:27:42.591Z,-8.54
2019-02-23T21:42:45.265Z,-8.51
2019-02-23T21:57:49.169Z,-8.37
2019-02-23T22:12:52.573Z,-8.41
2019-02-23T22:27:55.544Z,-8.37
2019-02-23T22:42:59.187Z,-8.23
2019-02-23T22:58:01.927Z,-8.34
2019-02-23T23:13:05.349Z,-8.49
2019-02-23T23:28:12.296Z,-8.60
2019-02-23T23:43:14.872Z,-8.73
2019-02-23T23:58:18.664Z,-8.86
